WFK weather

Northern Aroostook Regional Airport
Frenchville, Maine, United States

Public forecast

Using degrees Fahrenheit for public forecast. Weather courtesy of forecast.io.

METAR (pilot weather report)

Retrieved 2019/05/25 21:53 UTC (38 minutes ago):

KFVE 252153Z AUTO 20006KT 10SM CLR 22/02 A2996 RMK AO2 SLP143 T02220022

TAF (pilot weather forecast)

Retrieved 2019/05/25 18:22 UTC (4 hours ago):

TAF KFVE 251720Z 2518/2618 22005KT P6SM SCT250 FM260300 21009KT P6SM VCSH BKN060 FM260600 18009KT P6SM -SHRA OVC035 FM260900 18010G18KT P6SM VCSH OVC018 FM261500 18006KT P6SM VCSH OVC005